createdAt,value
2018-09-04T00:02:07.893Z,99021.75
2018-09-04T00:04:36.733Z,99012.89
2018-09-04T00:07:06.321Z,99015.42
2018-09-04T00:09:36.715Z,99014.79
2018-09-04T00:12:05.546Z,99010.08
2018-09-04T00:14:35.296Z,99016.63
2018-09-04T00:17:04.341Z,99019.83
2018-09-04T00:19:33.906Z,99015.33
2018-09-04T00:22:02.416Z,99017.02
2018-09-04T00:24:30.859Z,99018.23
2018-09-04T00:26:59.358Z,99020.11
2018-09-04T00:29:28.936Z,99021.30
2018-09-04T00:31:58.353Z,99018.63
2018-09-04T00:34:26.965Z,99023.63
2018-09-04T00:36:55.682Z,99023.91
2018-09-04T00:39:24.152Z,99015.39
2018-09-04T00:41:52.643Z,99017.83
2018-09-04T00:44:21.340Z,99022.53
2018-09-04T00:46:50.185Z,99022.56
2018-09-04T00:49:19.078Z,99018.91
2018-09-04T00:51:49.823Z,99021.72
2018-09-04T00:54:18.273Z,99015.53
2018-09-04T00:56:46.769Z,99013.50
2018-09-04T00:59:15.622Z,99023.41
2018-09-04T01:01:45.124Z,99026.44
2018-09-04T01:04:14.671Z,99022.70
2018-09-04T01:06:43.405Z,99030.02
2018-09-04T01:09:16.785Z,99022.14
2018-09-04T01:11:45.518Z,99025.52
2018-09-04T01:14:14.525Z,99027.02
2018-09-04T01:16:43.937Z,99026.95
2018-09-04T01:19:13.457Z,99024.92
2018-09-04T01:21:43.156Z,99027.59
2018-09-04T01:24:12.284Z,99028.92
2018-09-04T01:26:40.772Z,99028.57
2018-09-04T01:29:09.633Z,99030.46
2018-09-04T01:31:38.122Z,99023.89
2018-09-04T01:34:06.621Z,99025.39
2018-09-04T01:36:35.348Z,99026.76
2018-09-04T01:39:04.424Z,99036.61
2018-09-04T01:41:33.359Z,99034.64
2018-09-04T01:44:01.839Z,99036.27
2018-09-04T01:46:30.365Z,99039.57
2018-09-04T01:48:58.839Z,99045.90
2018-09-04T01:51:28.710Z,99042.39
2018-09-04T01:53:57.186Z,99048.69
2018-09-04T01:56:25.669Z,99047.80
2018-09-04T01:58:55.333Z,99048.37
2018-09-04T02:01:23.850Z,99050.67
2018-09-04T02:03:52.620Z,99044.69
2018-09-04T02:06:21.387Z,99045.25
2018-09-04T02:08:50.160Z,99046.78
2018-09-04T02:11:19.309Z,99044.55
2018-09-04T02:13:47.801Z,99039.28
2018-09-04T02:16:16.903Z,99039.05
2018-09-04T02:18:45.695Z,99033.95
2018-09-04T02:21:14.177Z,99038.22
2018-09-04T02:23:42.641Z,99033.00
2018-09-04T02:26:11.093Z,99034.88
2018-09-04T02:28:40.158Z,99033.56
2018-09-04T02:31:08.645Z,99034.06
2018-09-04T02:33:37.384Z,99043.19
2018-09-04T02:36:06.202Z,99043.05
2018-09-04T02:38:34.708Z,99045.44
2018-09-04T02:41:03.818Z,99042.01
2018-09-04T02:43:33.665Z,99035.33
2018-09-04T02:46:02.502Z,99038.47
2018-09-04T02:48:31.515Z,99036.39
2018-09-04T02:51:00.670Z,99035.06
2018-09-04T02:53:30.440Z,99036.39
2018-09-04T02:55:58.952Z,99031.06
2018-09-04T02:58:27.653Z,99028.16
2018-09-04T03:00:57.569Z,99037.59
2018-09-04T03:03:26.083Z,99026.98
2018-09-04T03:05:55.446Z,99031.77
2018-09-04T03:08:24.042Z,99031.65
2018-09-04T03:10:52.735Z,99023.42
2018-09-04T03:13:21.632Z,99023.42
2018-09-04T03:15:50.153Z,99029.72
2018-09-04T03:18:20.205Z,99027.77
2018-09-04T03:20:50.184Z,99031.00
2018-09-04T03:23:18.909Z,99016.67
2018-09-04T03:25:48.141Z,99019.70
2018-09-04T03:28:17.229Z,99025.36
2018-09-04T03:30:46.726Z,99025.39
2018-09-04T03:33:15.612Z,99025.68
2018-09-04T03:35:45.070Z,99018.18
2018-09-04T03:38:13.761Z,99020.41
2018-09-04T03:40:43.049Z,99021.77
2018-09-04T03:43:11.628Z,99025.82
2018-09-04T03:45:40.124Z,99030.53
2018-09-04T03:48:09.356Z,99029.33
2018-09-04T03:50:39.545Z,99030.58
2018-09-04T03:53:08.538Z,99034.09
2018-09-04T03:55:37.060Z,99027.55
2018-09-04T03:58:05.685Z,99031.27
2018-09-04T04:00:34.156Z,99034.03
2018-09-04T04:03:03.595Z,99036.42
2018-09-04T04:05:32.601Z,99039.70
2018-09-04T04:08:01.968Z,99036.27
2018-09-04T04:10:31.038Z,99040.44
2018-09-04T04:12:59.590Z,99038.39
2018-09-04T04:15:30.640Z,99042.68
2018-09-04T04:17:59.243Z,99043.17
2018-09-04T04:20:28.146Z,99045.48
2018-09-04T04:22:57.546Z,99053.05
2018-09-04T04:25:26.065Z,99052.64
2018-09-04T04:27:54.997Z,99057.27
2018-09-04T04:30:23.467Z,99059.31
2018-09-04T04:32:52.673Z,99061.41
2018-09-04T04:35:21.360Z,99061.27
2018-09-04T04:37:50.161Z,99063.66
2018-09-04T04:40:18.851Z,99063.16
2018-09-04T04:42:47.561Z,99070.27
2018-09-04T04:45:16.452Z,99063.87
2018-09-04T04:47:48.038Z,99069.48
2018-09-04T04:50:18.573Z,99064.87
2018-09-04T04:52:47.088Z,99072.35
2018-09-04T04:55:16.903Z,99074.97
2018-09-04T04:57:46.012Z,99070.46
2018-09-04T05:00:14.587Z,99075.25
2018-09-04T05:02:45.104Z,99073.27
2018-09-04T05:05:13.578Z,99069.25
2018-09-04T05:07:43.241Z,99070.78
2018-09-04T05:10:11.763Z,99066.03
2018-09-04T05:12:40.664Z,99060.45
2018-09-04T05:15:09.833Z,99065.27
2018-09-04T05:17:38.313Z,99065.45
2018-09-04T05:20:09.182Z,99069.88
2018-09-04T05:22:37.704Z,99063.36
2018-09-04T05:25:06.446Z,99062.25
2018-09-04T05:27:34.926Z,99058.92
2018-09-04T05:30:03.926Z,99049.56
2018-09-04T05:32:37.133Z,99053.16
2018-09-04T05:35:06.098Z,99060.80
2018-09-04T05:37:34.819Z,99061.57
2018-09-04T05:40:03.297Z,99070.09
2018-09-04T05:42:42.896Z,99075.93
2018-09-04T05:45:11.461Z,99070.80
2018-09-04T05:47:41.257Z,99063.33
2018-09-04T05:50:10.685Z,99068.72
2018-09-04T05:52:39.800Z,99064.95
2018-09-04T05:55:08.689Z,99071.09
2018-09-04T05:57:37.570Z,99073.56
2018-09-04T06:00:10.553Z,99071.19
2018-09-04T06:02:40.085Z,99078.70
2018-09-04T06:05:09.108Z,99085.17
2018-09-04T06:07:37.947Z,99087.21
2018-09-04T06:10:06.829Z,99089.92
2018-09-04T06:12:35.739Z,99084.23
2018-09-04T06:15:04.932Z,99087.46
2018-09-04T06:17:33.447Z,99084.23
2018-09-04T06:20:02.679Z,99080.64
2018-09-04T06:22:32.270Z,99088.63
2018-09-04T06:25:00.767Z,99087.99
2018-09-04T06:27:29.300Z,99094.92
2018-09-04T06:29:58.221Z,99101.07
2018-09-04T06:32:27.785Z,99100.54
2018-09-04T06:34:56.292Z,99098.92
2018-09-04T06:37:25.082Z,99101.20
2018-09-04T06:39:54.300Z,99099.93
2018-09-04T06:42:24.223Z,99101.97
2018-09-04T06:44:52.710Z,99105.21
2018-09-04T06:47:21.548Z,99099.25
2018-09-04T06:49:50.610Z,99096.25
2018-09-04T06:52:19.072Z,99097.14
2018-09-04T06:54:47.864Z,99096.42
2018-09-04T06:57:16.551Z,99095.53
2018-09-04T06:59:46.224Z,99100.92
2018-09-04T07:02:15.029Z,99112.02
2018-09-04T07:04:43.826Z,99109.89
2018-09-04T07:07:12.306Z,99112.02
2018-09-04T07:09:40.769Z,99108.72
2018-09-04T07:12:09.543Z,99109.13
2018-09-04T07:14:38.631Z,99103.77
2018-09-04T07:17:07.181Z,99106.25
2018-09-04T07:19:36.048Z,99103.77
2018-09-04T07:22:05.307Z,99113.78
2018-09-04T07:24:35.171Z,99115.81
2018-09-04T07:27:04.567Z,99121.11
2018-09-04T07:29:33.064Z,99124.55
2018-09-04T07:32:01.721Z,99129.84
2018-09-04T07:34:30.656Z,99123.92
2018-09-04T07:37:00.025Z,99124.13
2018-09-04T07:39:28.546Z,99123.14
2018-09-04T07:41:57.100Z,99115.79
2018-09-04T07:44:26.833Z,99117.06
2018-09-04T07:46:56.464Z,99115.93
2018-09-04T07:49:24.937Z,99111.60
2018-09-04T07:51:53.417Z,99118.81
2018-09-04T07:54:22.204Z,99124.12
2018-09-04T07:56:51.702Z,99125.13
2018-09-04T07:59:21.513Z,99130.70
2018-09-04T08:01:50.262Z,99134.95
2018-09-04T08:04:18.738Z,99121.48
2018-09-04T08:06:48.496Z,99129.98
2018-09-04T08:09:17.207Z,99132.05
2018-09-04T08:11:46.319Z,99135.34
2018-09-04T08:14:15.499Z,99130.98
2018-09-04T08:16:45.807Z,99124.13
2018-09-04T08:19:14.660Z,99121.89
2018-09-04T08:21:43.156Z,99127.59
2018-09-04T08:24:12.155Z,99129.30
2018-09-04T08:26:41.237Z,99131.67
2018-09-04T08:29:09.722Z,99134.02
2018-09-04T08:31:38.229Z,99132.16
2018-09-04T08:34:06.695Z,99125.29
2018-09-04T08:36:35.176Z,99127.03
2018-09-04T08:39:05.017Z,99124.85
2018-09-04T08:41:33.902Z,99121.70
2018-09-04T08:44:02.517Z,99123.31
2018-09-04T08:46:31.073Z,99117.25
2018-09-04T08:49:00.451Z,99110.23
2018-09-04T08:51:28.942Z,99111.28
2018-09-04T08:53:57.415Z,99105.98
2018-09-04T08:56:25.900Z,99111.94
2018-09-04T08:58:54.452Z,99114.41
2018-09-04T09:01:22.932Z,99114.64
2018-09-04T09:03:52.111Z,99110.07
2018-09-04T09:06:20.835Z,99097.66
2018-09-04T09:08:49.638Z,99106.91
2018-09-04T09:11:18.123Z,99104.03
2018-09-04T09:13:46.756Z,99096.38
2018-09-04T09:16:16.066Z,99095.42
2018-09-04T09:18:44.563Z,99090.21
2018-09-04T09:21:14.143Z,99091.65
2018-09-04T09:23:42.850Z,99091.65
2018-09-04T09:26:11.350Z,99097.64
2018-09-04T09:28:39.816Z,99098.84
2018-09-04T09:31:08.599Z,99095.62
2018-09-04T09:33:37.386Z,99087.74
2018-09-04T09:36:06.273Z,99084.13
2018-09-04T09:38:34.820Z,99087.99
2018-09-04T09:41:04.178Z,99084.78
2018-09-04T09:43:32.713Z,99091.49
2018-09-04T09:46:01.551Z,99095.82
2018-09-04T09:48:35.494Z,99093.55
2018-09-04T09:51:04.007Z,99097.95
2018-09-04T09:53:32.646Z,99091.23
2018-09-04T09:56:01.372Z,99089.23
2018-09-04T09:58:29.809Z,99087.53
2018-09-04T10:01:03.970Z,99084.52
2018-09-04T10:03:37.546Z,99085.30
2018-09-04T10:06:06.053Z,99085.16
2018-09-04T10:08:34.526Z,99076.70
2018-09-04T10:11:03.515Z,99079.45
2018-09-04T10:13:32.305Z,99078.84
2018-09-04T10:18:28.879Z,99080.64
2018-09-04T10:20:58.532Z,99075.21
2018-09-04T10:23:27.067Z,99064.38
2018-09-04T10:25:55.617Z,99060.98
2018-09-04T10:28:24.572Z,99066.55
2018-09-04T10:30:53.546Z,99069.84
2018-09-04T10:33:22.087Z,99067.52
2018-09-04T10:35:51.372Z,99064.95
2018-09-04T10:38:23.175Z,99058.05
2018-09-04T10:40:52.617Z,99063.95
2018-09-04T10:43:22.024Z,99059.53
2018-09-04T10:45:56.397Z,99057.72
2018-09-04T10:48:25.542Z,99049.52
2018-09-04T10:50:54.072Z,99048.29
2018-09-04T10:53:22.993Z,99043.89
2018-09-04T10:55:51.534Z,99044.92
2018-09-04T10:58:20.773Z,99041.90
2018-09-04T11:00:49.537Z,99049.59
2018-09-04T11:03:18.481Z,99043.13
2018-09-04T11:05:47.040Z,99044.75
2018-09-04T11:08:15.859Z,99041.27
2018-09-04T11:10:44.393Z,99037.71
2018-09-04T11:13:14.736Z,99038.47
2018-09-04T11:15:43.564Z,99039.48
2018-09-04T11:18:13.942Z,99035.26
2018-09-04T11:20:42.429Z,99042.80
2018-09-04T11:23:11.278Z,99038.25
2018-09-04T11:25:40.077Z,99037.16
2018-09-04T11:28:08.825Z,99040.94
2018-09-04T11:30:38.437Z,99032.66
2018-09-04T11:33:07.249Z,99031.22
2018-09-04T11:35:35.773Z,99033.06
2018-09-04T11:38:04.327Z,99032.53
2018-09-04T11:40:33.323Z,99025.45
2018-09-04T11:43:03.482Z,99021.62
2018-09-04T11:45:31.962Z,99021.44
2018-09-04T11:48:00.896Z,99023.27
2018-09-04T11:50:29.410Z,99025.57
2018-09-04T11:52:57.903Z,99025.52
2018-09-04T11:55:26.853Z,99025.19
2018-09-04T11:57:55.718Z,99022.80
2018-09-04T12:00:28.776Z,99026.27
2018-09-04T12:02:58.847Z,99021.96
2018-09-04T12:05:29.495Z,99024.77
2018-09-04T12:07:57.976Z,99020.75
2018-09-04T12:10:26.420Z,99021.66
2018-09-04T12:12:55.496Z,99014.95
2018-09-04T12:15:24.739Z,99018.55
2018-09-04T12:17:53.270Z,99016.88
2018-09-04T12:20:29.485Z,99018.02
2018-09-04T12:22:58.323Z,99009.94
2018-09-04T12:25:27.269Z,99013.86
2018-09-04T12:27:56.361Z,99012.31
2018-09-04T12:30:24.993Z,99004.60
2018-09-04T12:32:53.759Z,99008.17
2018-09-04T12:35:22.321Z,99011.88
2018-09-04T12:37:51.140Z,99006.86
2018-09-04T12:40:19.816Z,99007.09
2018-09-04T12:42:48.353Z,99005.91
2018-09-04T12:45:16.829Z,99001.13
2018-09-04T12:47:46.124Z,99006.94
2018-09-04T12:50:14.591Z,98997.34
2018-09-04T12:52:43.091Z,98997.31
2018-09-04T12:55:11.615Z,98995.22
2018-09-04T12:57:40.151Z,99001.63
2018-09-04T13:00:08.980Z,98998.84
2018-09-04T13:02:37.852Z,98998.98
2018-09-04T13:05:07.476Z,98993.33
2018-09-04T13:07:36.809Z,98987.47
2018-09-04T13:10:05.399Z,98985.38
2018-09-04T13:12:33.923Z,98978.31
2018-09-04T13:15:03.518Z,98984.49
2018-09-04T13:17:32.002Z,98977.02
2018-09-04T13:20:00.542Z,98978.00
2018-09-04T13:22:29.278Z,98977.50
2018-09-04T13:24:57.807Z,98973.77
2018-09-04T13:27:26.294Z,98971.84
2018-09-04T13:29:55.165Z,98974.43
2018-09-04T13:32:24.589Z,98974.45
2018-09-04T13:34:53.877Z,98980.66
2018-09-04T13:37:23.901Z,98975.37
2018-09-04T13:40:02.374Z,98972.55
2018-09-04T13:42:32.090Z,98967.73
2018-09-04T13:45:01.709Z,98973.77
2018-09-04T13:47:31.747Z,98970.84
2018-09-04T13:50:00.328Z,98972.13
2018-09-04T13:52:30.469Z,98970.47
2018-09-04T13:54:59.541Z,98974.53
2018-09-04T13:57:28.666Z,98973.05
2018-09-04T13:59:57.460Z,98969.70
2018-09-04T14:02:26.751Z,98968.07
2018-09-04T14:04:55.265Z,98965.97
2018-09-04T14:07:24.049Z,98971.30
2018-09-04T14:09:52.730Z,98975.04
2018-09-04T14:12:21.621Z,98975.52
2018-09-04T14:14:50.984Z,98990.03
2018-09-04T14:17:20.790Z,98995.41
2018-09-04T14:19:50.030Z,98996.98
2018-09-04T14:22:18.543Z,98995.63
2018-09-04T14:25:29.576Z,98989.95
2018-09-04T14:27:58.019Z,98985.41
2018-09-04T14:30:26.809Z,98984.23
2018-09-04T14:32:55.749Z,98979.94
2018-09-04T14:35:24.633Z,98981.27
2018-09-04T14:37:53.582Z,98976.15
2018-09-04T14:40:22.099Z,98978.16
2018-09-04T14:42:51.538Z,98975.22
2018-09-04T14:45:20.058Z,98980.34
2018-09-04T14:47:48.958Z,98976.25
2018-09-04T14:50:17.670Z,98970.80
2018-09-04T14:52:47.619Z,98975.33
2018-09-04T14:55:16.612Z,98977.49
2018-09-04T14:57:45.992Z,98979.97
2018-09-04T15:00:15.546Z,98985.16
2018-09-04T15:02:44.022Z,98982.11
2018-09-04T15:05:12.535Z,98980.98
2018-09-04T15:07:41.840Z,98983.95
2018-09-04T15:10:11.225Z,98986.75
2018-09-04T15:12:39.982Z,98997.02
2018-09-04T15:15:09.123Z,98992.61
2018-09-04T15:17:37.931Z,98986.67
2018-09-04T15:20:07.388Z,98987.50
2018-09-04T15:22:40.393Z,98978.05
2018-09-04T15:25:09.753Z,98978.86
2018-09-04T15:27:38.581Z,98978.02
2018-09-04T15:30:07.238Z,98982.20
2018-09-04T15:32:36.173Z,98980.16
2018-09-04T15:35:05.112Z,98979.67
2018-09-04T15:37:35.088Z,98984.64
2018-09-04T15:40:04.148Z,98981.77
2018-09-04T15:42:33.533Z,98980.22
2018-09-04T15:45:02.921Z,98981.13
2018-09-04T15:47:32.347Z,98977.59
2018-09-04T15:50:00.857Z,98979.36
2018-09-04T15:52:29.567Z,98979.27
2018-09-04T15:54:58.690Z,98978.86
2018-09-04T15:57:27.622Z,98978.77
2018-09-04T15:59:56.666Z,98981.00
2018-09-04T16:02:25.384Z,98976.88
2018-09-04T16:04:54.247Z,98977.44
2018-09-04T16:07:24.663Z,98975.80
2018-09-04T16:09:54.147Z,98978.38
2018-09-04T16:12:22.771Z,98980.67
2018-09-04T16:14:52.622Z,98977.98
2018-09-04T16:17:21.409Z,98975.73
2018-09-04T16:19:50.209Z,98979.52
2018-09-04T16:22:19.255Z,98976.36
2018-09-04T16:24:48.009Z,98983.31
2018-09-04T16:27:18.842Z,98969.77
2018-09-04T16:29:48.678Z,98976.17
2018-09-04T16:32:17.162Z,98972.55
2018-09-04T16:34:45.685Z,98982.61
2018-09-04T16:37:14.163Z,98989.95
2018-09-04T16:39:42.676Z,98987.93
2018-09-04T16:42:11.157Z,98984.54
2018-09-04T16:44:40.944Z,98988.30
2018-09-04T16:47:09.427Z,98989.20
2018-09-04T16:49:37.968Z,99002.49
2018-09-04T16:52:06.623Z,98999.41
2018-09-04T16:54:36.717Z,99004.16
2018-09-04T16:57:05.624Z,99001.98
2018-09-04T16:59:35.100Z,98998.89
2018-09-04T17:02:07.479Z,98996.67
2018-09-04T17:04:36.315Z,98992.89
2018-09-04T17:07:05.717Z,99002.75
2018-09-04T17:09:34.243Z,99001.86
2018-09-04T17:12:02.740Z,98995.77
2018-09-04T17:14:32.469Z,98998.76
2018-09-04T17:17:00.981Z,98999.39
2018-09-04T17:19:30.885Z,99008.48
2018-09-04T17:22:00.557Z,99005.33
2018-09-04T17:24:29.685Z,99008.63
2018-09-04T17:26:58.212Z,99009.98
2018-09-04T17:29:27.362Z,99013.34
2018-09-04T17:31:58.318Z,99017.83
2018-09-04T17:34:28.427Z,99022.12
2018-09-04T17:36:57.545Z,99028.39
2018-09-04T17:39:26.072Z,99028.67
2018-09-04T17:41:54.957Z,99016.69
2018-09-04T17:44:24.680Z,99027.60
2018-09-04T17:46:53.437Z,99030.23
2018-09-04T17:49:21.906Z,99027.77
2018-09-04T17:51:50.437Z,99024.81
2018-09-04T17:54:19.745Z,99041.47
2018-09-04T17:56:49.296Z,99035.88
2018-09-04T17:59:17.784Z,99040.94
2018-09-04T18:01:46.645Z,99038.91
2018-09-04T18:04:17.005Z,99038.56
2018-09-04T18:06:45.527Z,99039.59
2018-09-04T18:09:15.487Z,99041.90
2018-09-04T18:11:45.211Z,99046.99
2018-09-04T18:14:14.122Z,99049.84
2018-09-04T18:16:42.677Z,99050.66
2018-09-04T18:19:11.173Z,99063.02
2018-09-04T18:21:40.020Z,99062.25
2018-09-04T18:24:09.341Z,99065.04
2018-09-04T18:26:38.013Z,99071.11
2018-09-04T18:29:07.081Z,99073.66
2018-09-04T18:31:35.588Z,99069.80
2018-09-04T18:34:04.070Z,99073.20
2018-09-04T18:36:32.941Z,99075.39
2018-09-04T18:39:01.416Z,99079.77
2018-09-04T18:41:30.644Z,99090.91
2018-09-04T18:44:00.116Z,99089.45
2018-09-04T18:46:28.675Z,99088.41
2018-09-04T18:48:57.289Z,99085.53
2018-09-04T18:51:26.507Z,99091.97
2018-09-04T18:53:56.940Z,99089.65
2018-09-04T18:56:26.009Z,99094.00
2018-09-04T18:58:54.804Z,99097.41
2018-09-04T19:01:23.328Z,99093.23
2018-09-04T19:03:52.129Z,99094.25
2018-09-04T19:06:21.256Z,99096.41
2018-09-04T19:08:49.735Z,99092.52
2018-09-04T19:11:18.528Z,99096.06
2018-09-04T19:13:47.037Z,99097.08
2018-09-04T19:16:15.542Z,99095.73
2018-09-04T19:18:44.330Z,99100.45
2018-09-04T19:21:12.865Z,99100.09
2018-09-04T19:23:41.838Z,99101.77
2018-09-04T19:26:10.308Z,99101.95
2018-09-04T19:28:39.563Z,99100.95
2018-09-04T19:31:08.257Z,99098.80
2018-09-04T19:33:37.681Z,99107.03
2018-09-04T19:36:06.129Z,99098.62
2018-09-04T19:38:34.604Z,99101.50
2018-09-04T19:41:03.067Z,99103.03
2018-09-04T19:43:32.012Z,99097.29
2018-09-04T19:46:01.228Z,99098.12
2018-09-04T19:48:30.361Z,99100.33
2018-09-04T19:50:59.350Z,99100.01
2018-09-04T19:53:27.849Z,99110.27
2018-09-04T19:55:57.196Z,99109.28
2018-09-04T19:58:26.252Z,99104.03
2018-09-04T20:00:55.012Z,99105.57
2018-09-04T20:03:23.707Z,99102.53
2018-09-04T20:05:52.173Z,99099.52
2018-09-04T20:08:21.667Z,99104.38
2018-09-04T20:10:50.472Z,99109.45
2018-09-04T20:13:19.751Z,99100.84
2018-09-04T20:15:48.373Z,99110.10
2018-09-04T20:18:16.916Z,99101.36
2018-09-04T20:20:45.604Z,99109.91
2018-09-04T20:23:14.130Z,99107.20
2018-09-04T20:25:43.359Z,99107.69
2018-09-04T20:28:12.101Z,99108.67
2018-09-04T20:30:40.552Z,99110.05
2018-09-04T20:33:09.032Z,99111.20
2018-09-04T20:35:37.520Z,99112.38
2018-09-04T20:38:06.148Z,99115.24
2018-09-04T20:40:35.169Z,99115.25
2018-09-04T20:43:04.088Z,99111.20
2018-09-04T20:45:32.545Z,99112.02
2018-09-04T20:48:01.265Z,99108.16
2018-09-04T20:50:32.285Z,99117.55
2018-09-04T20:53:00.762Z,99113.65
2018-09-04T20:55:30.208Z,99114.48
2018-09-04T20:58:09.886Z,99117.14
2018-09-04T21:00:49.782Z,99119.26
2018-09-04T21:03:29.424Z,99121.48
2018-09-04T21:06:09.622Z,99123.09
2018-09-04T21:08:52.170Z,99123.05
2018-09-04T21:11:21.060Z,99121.64
2018-09-04T21:13:49.560Z,99128.81
2018-09-04T21:16:18.532Z,99129.61
2018-09-04T21:18:47.013Z,99125.63
2018-09-04T21:21:15.480Z,99124.83
2018-09-04T21:23:44.937Z,99124.72
2018-09-04T21:26:13.848Z,99125.56
2018-09-04T21:28:43.600Z,99124.50
2018-09-04T21:31:12.699Z,99127.13
2018-09-04T21:33:42.114Z,99117.00
2018-09-04T21:36:10.927Z,99122.88
2018-09-04T21:38:39.616Z,99121.70
2018-09-04T21:41:08.107Z,99117.33
2018-09-04T21:43:36.565Z,99115.16
2018-09-04T21:46:05.266Z,99119.28
2018-09-04T21:48:34.112Z,99119.50
2018-09-04T21:51:03.478Z,99124.25
2018-09-04T21:53:32.268Z,99119.31
2018-09-04T21:56:00.738Z,99123.79
2018-09-04T21:58:29.269Z,99125.77
2018-09-04T22:00:58.688Z,99127.93
2018-09-04T22:03:28.653Z,99131.41
2018-09-04T22:05:57.849Z,99129.31
2018-09-04T22:08:26.324Z,99130.97
2018-09-04T22:10:55.053Z,99129.53
2018-09-04T22:13:23.546Z,99132.23
2018-09-04T22:15:52.087Z,99129.47
2018-09-04T22:18:21.210Z,99131.34
2018-09-04T22:20:50.126Z,99135.42
2018-09-04T22:23:19.440Z,99132.75
2018-09-04T22:25:47.936Z,99135.88
2018-09-04T22:28:16.426Z,99129.16
2018-09-04T22:30:44.954Z,99129.41
2018-09-04T22:33:15.521Z,99136.47
2018-09-04T22:35:44.071Z,99133.44
2018-09-04T22:38:12.556Z,99133.09
2018-09-04T22:40:41.635Z,99130.89
2018-09-04T22:43:10.185Z,99142.03
2018-09-04T22:45:38.681Z,99138.13
2018-09-04T22:48:07.188Z,99139.22
2018-09-04T22:50:40.968Z,99136.19
2018-09-04T22:53:09.456Z,99136.20
2018-09-04T22:55:37.962Z,99139.55
2018-09-04T22:58:06.498Z,99135.34
2018-09-04T23:00:36.496Z,99136.30
2018-09-04T23:03:04.998Z,99138.11
2018-09-04T23:05:33.497Z,99139.78
2018-09-04T23:08:02.827Z,99135.33
2018-09-04T23:10:31.761Z,99131.46
2018-09-04T23:13:02.422Z,99134.55
2018-09-04T23:15:30.910Z,99136.11
2018-09-04T23:17:59.386Z,99131.09
2018-09-04T23:20:28.348Z,99129.69
2018-09-04T23:22:56.785Z,99129.16
2018-09-04T23:25:25.613Z,99133.91
2018-09-04T23:27:54.306Z,99127.44
2018-09-04T23:30:23.087Z,99128.89
2018-09-04T23:32:51.833Z,99134.06
2018-09-04T23:35:20.713Z,99128.94
2018-09-04T23:37:49.158Z,99130.34
2018-09-04T23:40:17.693Z,99124.14
2018-09-04T23:42:46.542Z,99127.06
2018-09-04T23:45:15.058Z,99122.23
2018-09-04T23:47:44.590Z,99121.89
2018-09-04T23:50:13.596Z,99121.05
2018-09-04T23:52:42.836Z,99119.16
2018-09-04T23:55:11.324Z,99114.48
2018-09-04T23:57:40.209Z,99113.34
